Terminal Aerodrome Forecast
Issued by NWS Lake Charles, LA

Home | Current Version | Previous Version | Text Only | Print | Product List | Glossary On
Versions: 1 2 3 4 5 6 7 8 9 10 11 12 13 14 15 16 17 18 19 20 21
000
FTUS44 KLCH 172150 AAA
TAFBPT
TAF AMD
KBPT 172150Z 1722/1818 23012KT P6SM VCSH SCT025 BKN050
      TEMPO 1722/1724 BKN025
     FM180000 25006KT P6SM VCSH OVC009
     FM180300 VRB05KT 3SM BR OVC006
     FM180600 VRB04KT 1SM BR OVC003
      TEMPO 1809/1813 1/2SM FG OVC002
     FM181600 12007KT 4SM BR OVC005=

USA.gov is the U.S. government's official web portal to all federal, state and local government web resources and services.